Time;durP1;ratioP1;P1;durP2;ratioP2;P2;SDS_P1;SDS_P2;PMS_P1;PMS_P2;Temp;Humidity;BMP_temperature;BMP_pressure;BME280_temperature;BME280_humidity;BME280_pressure;Samples;Min_cycle;Max_cycle;Signal;HPM_P1;HPM_P2
2021/04/20 00:00:19;;;;;;;43.93;15.03;;;;;;;;;;5060715;28;20380;-67
2021/04/20 00:02:44;;;;;;;38.50;14.20;;;;;;;;;;5051010;28;20070;-66
2021/04/20 00:05:12;;;;;;;35.40;13.27;;;;;;;;;;5066557;28;20040;-66
2021/04/20 00:07:38;;;;;;;40.43;15.03;;;;;;;;;;5066038;28;20468;-67
2021/04/20 00:10:07;;;;;;;42.37;15.00;;;;;;;;;;5046333;28;20082;-67
2021/04/20 00:12:32;;;;;;;39.27;15.10;;;;;;;;;;5058861;28;20021;-67
2021/04/20 00:14:58;;;;;;;38.73;13.33;;;;;;;;;;5064377;28;20079;-67
2021/04/20 00:17:23;;;;;;;38.30;13.90;;;;;;;;;;5064663;28;20016;-67
2021/04/20 00:19:48;;;;;;;44.87;14.53;;;;;;;;;;5066067;28;20029;-66
2021/04/20 00:22:13;;;;;;;38.90;12.87;;;;;;;;;;5065286;28;20028;-66
2021/04/20 00:24:39;;;;;;;40.57;15.70;;;;;;;;;;5068975;28;20136;-66
2021/04/20 00:27:04;;;;;;;44.43;14.77;;;;;;;;;;5069817;28;20021;-66
2021/04/20 00:29:30;;;;;;;38.53;14.23;;;;;;;;;;5062784;28;20023;-66
2021/04/20 00:31:55;;;;;;;46.30;14.30;;;;;;;;;;5065145;28;20031;-66
2021/04/20 00:34:21;;;;;;;39.80;13.93;;;;;;;;;;5064888;28;20031;-67
2021/04/20 00:36:46;;;;;;;37.30;13.63;;;;;;;;;;5064820;28;20119;-67
2021/04/20 00:39:11;;;;;;;37.70;13.33;;;;;;;;;;5064574;28;20031;-67
2021/04/20 00:41:37;;;;;;;34.43;13.30;;;;;;;;;;5047397;28;20037;-67
2021/04/20 00:44:02;;;;;;;35.23;12.53;;;;;;;;;;5063002;28;20028;-67
2021/04/20 00:46:28;;;;;;;41.53;12.60;;;;;;;;;;5066176;28;20384;-67
2021/04/20 00:48:53;;;;;;;41.33;14.13;;;;;;;;;;5063111;28;20050;-67
2021/04/20 00:51:19;;;;;;;46.20;15.10;;;;;;;;;;5063392;28;20033;-67
2021/04/20 00:53:45;;;;;;;44.40;13.27;;;;;;;;;;5056618;28;20036;-67
2021/04/20 00:56:10;;;;;;;47.97;14.30;;;;;;;;;;5059345;28;20025;-67
2021/04/20 00:58:36;;;;;;;51.70;14.80;;;;;;;;;;5056488;28;20029;-67
2021/04/20 01:01:02;;;;;;;58.20;15.50;;;;;;;;;;5046040;28;20102;-67
2021/04/20 01:03:27;;;;;;;53.90;15.83;;;;;;;;;;5083344;22;20415;-81
2021/04/20 01:05:53;;;;;;;64.10;16.30;;;;;;;;;;5087486;28;20020;-81
2021/04/20 01:08:19;;;;;;;78.70;17.00;;;;;;;;;;5087188;28;20051;-81
2021/04/20 01:10:52;;;;;;;73.33;18.23;;;;;;;;;;5085653;28;20020;-81
2021/04/20 01:13:17;;;;;;;75.90;18.57;;;;;;;;;;5091600;28;20025;-81
2021/04/20 01:15:44;;;;;;;82.47;19.13;;;;;;;;;;5084580;28;20131;-82
2021/04/20 01:18:13;;;;;;;80.40;18.30;;;;;;;;;;5086285;28;20057;-82
2021/04/20 01:20:42;;;;;;;87.77;19.50;;;;;;;;;;5084931;28;20435;-81
2021/04/20 01:23:09;;;;;;;91.67;19.03;;;;;;;;;;5091162;28;20473;-81
2021/04/20 01:25:35;;;;;;;90.70;19.40;;;;;;;;;;5085856;28;20020;-81
2021/04/20 01:28:00;;;;;;;122.13;21.13;;;;;;;;;;5064330;28;20084;-81
2021/04/20 01:30:26;;;;;;;103.00;20.67;;;;;;;;;;5064619;28;20032;-81
2021/04/20 01:32:52;;;;;;;116.73;22.17;;;;;;;;;;5079870;28;20029;-81
2021/04/20 01:35:17;;;;;;;105.30;19.87;;;;;;;;;;5080166;28;20033;-81
2021/04/20 01:37:42;;;;;;;100.53;20.33;;;;;;;;;;5083533;28;20061;-82
2021/04/20 01:40:08;;;;;;;96.33;20.43;;;;;;;;;;5079888;28;20287;-81
2021/04/20 01:42:34;;;;;;;113.80;21.53;;;;;;;;;;5079810;28;20024;-81
2021/04/20 01:45:00;;;;;;;121.47;21.70;;;;;;;;;;5077690;28;20460;-81
2021/04/20 01:47:26;;;;;;;125.10;21.13;;;;;;;;;;5086990;28;20023;-81
2021/04/20 01:49:53;;;;;;;107.13;21.87;;;;;;;;;;5085117;28;20482;-81
2021/04/20 01:52:19;;;;;;;111.90;20.70;;;;;;;;;;5072752;28;20296;-82
2021/04/20 01:54:44;;;;;;;112.70;22.50;;;;;;;;;;5079567;28;20274;-81
2021/04/20 01:57:10;;;;;;;109.73;23.63;;;;;;;;;;5088020;28;20036;-81
2021/04/20 01:59:36;;;;;;;136.83;26.40;;;;;;;;;;5069921;28;20050;-81
2021/04/20 02:02:01;;;;;;;142.27;25.70;;;;;;;;;;5078387;28;20041;-81
2021/04/20 02:04:27;;;;;;;158.47;26.40;;;;;;;;;;5077945;28;20048;-81
2021/04/20 02:06:53;;;;;;;160.17;24.97;;;;;;;;;;5053860;28;20107;-81
2021/04/20 02:09:18;;;;;;;158.50;26.00;;;;;;;;;;5071543;28;20491;-81
2021/04/20 02:11:44;;;;;;;155.70;26.07;;;;;;;;;;5074248;28;20028;-81
2021/04/20 02:14:09;;;;;;;139.43;25.83;;;;;;;;;;5071099;28;20068;-81
2021/04/20 02:16:35;;;;;;;149.40;27.13;;;;;;;;;;5070849;28;20021;-81
2021/04/20 02:19:07;;;;;;;159.47;26.77;;;;;;;;;;5070342;28;20060;-81
2021/04/20 02:21:33;;;;;;;144.27;26.42;;;;;;;;;;5051725;28;20039;-81
2021/04/20 02:23:59;;;;;;;142.70;25.53;;;;;;;;;;5073040;28;20050;-81
2021/04/20 02:26:26;;;;;;;153.77;25.93;;;;;;;;;;5049904;28;20785;-80
2021/04/20 02:28:55;;;;;;;150.60;26.77;;;;;;;;;;5069992;28;20809;-80
2021/04/20 02:31:20;;;;;;;175.47;27.60;;;;;;;;;;5066198;28;20274;-80
2021/04/20 02:33:46;;;;;;;163.37;26.83;;;;;;;;;;5066158;28;20464;-80
2021/04/20 02:36:12;;;;;;;175.77;25.50;;;;;;;;;;5071343;28;20028;-80
2021/04/20 02:38:37;;;;;;;180.43;28.40;;;;;;;;;;5069872;28;20528;-80
2021/04/20 02:41:03;;;;;;;169.17;28.27;;;;;;;;;;5066844;28;20036;-80
2021/04/20 02:43:30;;;;;;;162.43;28.80;;;;;;;;;;5073473;28;20492;-81
2021/04/20 02:45:59;;;;;;;168.23;26.83;;;;;;;;;;5070022;28;20533;-80
2021/04/20 02:48:25;;;;;;;161.43;26.53;;;;;;;;;;5071442;28;20377;-80
2021/04/20 02:50:51;;;;;;;175.40;27.37;;;;;;;;;;5075942;28;20864;-80
2021/04/20 02:53:18;;;;;;;168.70;27.63;;;;;;;;;;5072219;28;20051;-80
2021/04/20 02:55:44;;;;;;;159.53;28.17;;;;;;;;;;5074764;28;20378;-80
2021/04/20 02:58:15;;;;;;;168.50;28.60;;;;;;;;;;5073767;28;20278;-80
2021/04/20 03:00:42;;;;;;;159.37;28.27;;;;;;;;;;5054476;28;20274;-80
2021/04/20 03:03:07;;;;;;;140.60;29.13;;;;;;;;;;5072888;28;20581;-80
2021/04/20 03:05:33;;;;;;;132.80;25.10;;;;;;;;;;5071837;28;20298;-80
2021/04/20 03:07:59;;;;;;;126.47;23.27;;;;;;;;;;5069389;28;20023;-80
2021/04/20 03:10:26;;;;;;;137.73;24.70;;;;;;;;;;5070472;28;20037;-80
2021/04/20 03:12:51;;;;;;;117.23;25.13;;;;;;;;;;5074830;28;20028;-80
2021/04/20 03:15:17;;;;;;;131.87;22.93;;;;;;;;;;5069050;28;20763;-80
2021/04/20 03:17:47;;;;;;;118.03;24.13;;;;;;;;;;5075471;28;20028;-80
2021/04/20 03:20:14;;;;;;;120.37;22.43;;;;;;;;;;5066943;28;20035;-80
2021/04/20 03:22:40;;;;;;;114.63;23.80;;;;;;;;;;5070759;28;20284;-80
2021/04/20 03:25:06;;;;;;;119.80;24.23;;;;;;;;;;5068992;28;20297;-80
2021/04/20 03:27:32;;;;;;;105.63;24.20;;;;;;;;;;5072268;28;20358;-80
2021/04/20 03:29:58;;;;;;;122.63;24.93;;;;;;;;;;5053505;28;20166;-81
2021/04/20 03:32:24;;;;;;;105.13;22.00;;;;;;;;;;5068154;28;20341;-80
2021/04/20 03:35:09;;;;;;;107.23;23.17;;;;;;;;;;5071751;28;20152;-80
2021/04/20 03:38:01;;;;;;;107.83;22.30;;;;;;;;;;5067947;28;20733;-80
2021/04/20 03:40:27;;;;;;;107.83;21.80;;;;;;;;;;5065138;28;20647;-80
2021/04/20 03:42:57;;;;;;;96.70;22.30;;;;;;;;;;5072663;28;20274;-81
2021/04/20 03:45:26;;;;;;;118.77;22.50;;;;;;;;;;5067559;28;20031;-80
2021/04/20 03:47:57;;;;;;;97.80;22.07;;;;;;;;;;5073098;28;20277;-80
2021/04/20 03:50:27;;;;;;;89.97;21.90;;;;;;;;;;5054773;28;21046;-80
2021/04/20 03:52:54;;;;;;;86.07;21.20;;;;;;;;;;5075325;28;20300;-80
2021/04/20 03:55:21;;;;;;;114.03;22.80;;;;;;;;;;5050716;28;20311;-80
2021/04/20 03:57:48;;;;;;;106.83;22.47;;;;;;;;;;5074688;28;20277;-80
2021/04/20 04:00:15;;;;;;;105.97;22.40;;;;;;;;;;5072383;28;20658;-80
2021/04/20 04:02:42;;;;;;;101.50;22.33;;;;;;;;;;5083449;28;20660;-80
2021/04/20 04:05:08;;;;;;;108.53;22.83;;;;;;;;;;5071399;28;20313;-80
2021/04/20 04:07:35;;;;;;;102.27;22.63;;;;;;;;;;5072933;28;20266;-80
2021/04/20 04:10:02;;;;;;;141.50;25.97;;;;;;;;;;5074336;28;20286;-80
2021/04/20 04:12:28;;;;;;;136.93;25.40;;;;;;;;;;5073988;28;20266;-81
2021/04/20 04:14:54;;;;;;;121.87;24.30;;;;;;;;;;5074160;28;20333;-80
2021/04/20 04:17:20;;;;;;;132.40;24.90;;;;;;;;;;5075234;28;20032;-80
2021/04/20 04:19:47;;;;;;;132.93;26.30;;;;;;;;;;5069739;28;20275;-80
2021/04/20 04:22:13;;;;;;;104.40;22.53;;;;;;;;;;5073736;28;20028;-80
2021/04/20 04:24:45;;;;;;;101.53;21.77;;;;;;;;;;5077853;28;20282;-80
2021/04/20 04:27:13;;;;;;;96.10;22.50;;;;;;;;;;5076055;28;20453;-80
2021/04/20 04:29:39;;;;;;;96.53;23.60;;;;;;;;;;5057031;28;20024;-78
2021/04/20 04:32:06;;;;;;;86.67;21.10;;;;;;;;;;5072408;28;20278;-80
2021/04/20 04:34:31;;;;;;;92.83;21.93;;;;;;;;;;5073465;28;20036;-81
2021/04/20 04:36:57;;;;;;;84.73;19.80;;;;;;;;;;5077807;28;20278;-80
2021/04/20 04:39:22;;;;;;;67.80;17.03;;;;;;;;;;5076147;28;20027;-80
2021/04/20 04:41:48;;;;;;;65.13;17.37;;;;;;;;;;5076444;28;20050;-80
2021/04/20 04:44:14;;;;;;;48.37;14.20;;;;;;;;;;5077113;28;20025;-80
2021/04/20 04:46:43;;;;;;;54.83;14.30;;;;;;;;;;5076158;28;20052;-80
2021/04/20 04:49:10;;;;;;;58.80;16.47;;;;;;;;;;5076322;28;20078;-80
2021/04/20 04:51:37;;;;;;;66.60;16.83;;;;;;;;;;5074712;28;20267;-80
2021/04/20 04:54:03;;;;;;;60.70;16.23;;;;;;;;;;5074794;28;20362;-81
2021/04/20 04:56:28;;;;;;;58.77;16.57;;;;;;;;;;5069933;28;20290;-81
2021/04/20 04:58:54;;;;;;;55.53;17.30;;;;;;;;;;5061238;28;20085;-81
2021/04/20 05:01:20;;;;;;;44.90;14.20;;;;;;;;;;5064686;28;20024;-80
2021/04/20 05:03:45;;;;;;;40.20;15.60;;;;;;;;;;5077013;28;20492;-81
2021/04/20 05:06:14;;;;;;;46.93;15.07;;;;;;;;;;5086427;28;20024;-81
2021/04/20 05:08:39;;;;;;;37.67;13.77;;;;;;;;;;5078056;28;20108;-81
2021/04/20 05:11:05;;;;;;;35.33;12.30;;;;;;;;;;5082230;28;20310;-80
2021/04/20 05:13:31;;;;;;;35.40;13.13;;;;;;;;;;5059491;28;20092;-81
2021/04/20 05:16:02;;;;;;;33.40;11.03;;;;;;;;;;5078522;28;20027;-81
2021/04/20 05:18:28;;;;;;;29.47;10.43;;;;;;;;;;5080154;28;20456;-82
2021/04/20 05:20:53;;;;;;;23.90;9.93;;;;;;;;;;5079893;28;20024;-81
2021/04/20 05:23:18;;;;;;;22.67;9.00;;;;;;;;;;5059748;28;20020;-81
2021/04/20 05:25:44;;;;;;;21.53;8.63;;;;;;;;;;5078264;28;20111;-80
2021/04/20 05:28:09;;;;;;;24.63;8.90;;;;;;;;;;5078176;28;20023;-81
2021/04/20 05:30:35;;;;;;;21.53;9.17;;;;;;;;;;5069887;28;20035;-81
2021/04/20 05:33:01;;;;;;;22.20;8.97;;;;;;;;;;5072833;28;20036;-81
2021/04/20 05:35:27;;;;;;;20.33;9.03;;;;;;;;;;5076047;28;20080;-81
2021/04/20 05:37:52;;;;;;;18.37;8.57;;;;;;;;;;5074171;28;20023;-81
2021/04/20 05:40:22;;;;;;;23.80;8.57;;;;;;;;;;5075129;28;20450;-81
2021/04/20 05:42:47;;;;;;;19.33;7.67;;;;;;;;;;5080477;28;20092;-81
2021/04/20 05:45:15;;;;;;;23.73;8.67;;;;;;;;;;5075515;28;20620;-81
2021/04/20 05:47:41;;;;;;;18.63;6.80;;;;;;;;;;5080691;28;20021;-81
2021/04/20 05:50:07;;;;;;;17.23;7.70;;;;;;;;;;5075303;28;20036;-81
2021/04/20 05:52:33;;;;;;;16.00;6.63;;;;;;;;;;5056144;28;20401;-81
2021/04/20 05:54:59;;;;;;;12.80;6.60;;;;;;;;;;5064956;28;20028;-82
2021/04/20 05:57:25;;;;;;;15.00;6.50;;;;;;;;;;5091711;28;20200;-82
2021/04/20 05:59:54;;;;;;;14.33;6.50;;;;;;;;;;5075380;28;20069;-82
2021/04/20 06:02:20;;;;;;;17.47;5.80;;;;;;;;;;5072715;28;20032;-82
2021/04/20 06:04:46;;;;;;;14.53;6.37;;;;;;;;;;5065225;28;20040;-82
2021/04/20 06:07:15;;;;;;;13.83;5.80;;;;;;;;;;5070519;28;20036;-81
2021/04/20 06:09:42;;;;;;;13.90;5.77;;;;;;;;;;5074879;28;20020;-81
2021/04/20 06:12:08;;;;;;;11.90;5.73;;;;;;;;;;5072690;28;20035;-82
2021/04/20 06:14:33;;;;;;;17.53;5.63;;;;;;;;;;5070327;28;20083;-82
2021/04/20 06:16:59;;;;;;;12.17;5.20;;;;;;;;;;5068354;28;20036;-82
2021/04/20 06:19:25;;;;;;;11.50;4.80;;;;;;;;;;5077575;28;20024;-82
2021/04/20 06:21:50;;;;;;;12.23;5.00;;;;;;;;;;5075821;28;20043;-82
2021/04/20 06:24:16;;;;;;;12.00;5.60;;;;;;;;;;5068322;28;20036;-82
2021/04/20 06:26:41;;;;;;;10.87;5.20;;;;;;;;;;5065169;28;20113;-82
2021/04/20 06:29:07;;;;;;;11.53;4.77;;;;;;;;;;5077704;28;20028;-81
2021/04/20 06:31:35;;;;;;;10.20;5.00;;;;;;;;;;5070881;28;20021;-82
2021/04/20 06:34:01;;;;;;;11.30;4.83;;;;;;;;;;5072793;28;20047;-82
2021/04/20 06:36:26;;;;;;;10.43;5.00;;;;;;;;;;5071789;28;20032;-82
2021/04/20 06:38:52;;;;;;;10.90;5.20;;;;;;;;;;5068595;28;20037;-82
2021/04/20 06:41:18;;;;;;;13.20;5.00;;;;;;;;;;5064510;28;20032;-82
2021/04/20 06:44:04;;;;;;;10.83;4.70;;;;;;;;;;5070529;28;21644;-82
2021/04/20 06:46:43;;;;;;;11.30;4.60;;;;;;;;;;5061731;28;20050;-82
2021/04/20 06:49:27;;;;;;;9.73;4.17;;;;;;;;;;5069305;28;20029;-82
2021/04/20 06:51:56;;;;;;;9.63;4.60;;;;;;;;;;5061960;28;20432;-82
2021/04/20 06:54:41;;;;;;;12.30;4.40;;;;;;;;;;5062134;28;20067;-82
2021/04/20 06:57:06;;;;;;;8.37;4.10;;;;;;;;;;5068230;28;20032;-82
2021/04/20 06:59:35;;;;;;;9.97;4.30;;;;;;;;;;5072189;28;20028;-82
2021/04/20 07:02:10;;;;;;;9.97;4.37;;;;;;;;;;5079621;28;20034;-83
2021/04/20 07:04:35;;;;;;;9.13;3.80;;;;;;;;;;5065301;28;20044;-82
2021/04/20 07:07:27;;;;;;;7.93;4.00;;;;;;;;;;5053119;28;20488;-82
2021/04/20 07:10:13;;;;;;;9.63;3.83;;;;;;;;;;5026979;28;20052;-82
2021/04/20 07:12:40;;;;;;;9.30;4.00;;;;;;;;;;5079289;28;20119;-82
2021/04/20 07:15:07;;;;;;;9.93;3.67;;;;;;;;;;5064115;28;20035;-82
2021/04/20 07:17:36;;;;;;;10.85;4.20;;;;;;;;;;5076816;28;20024;-81
2021/04/20 07:20:17;;;;;;;6.68;3.70;;;;;;;;;;5072497;28;20069;-82
2021/04/20 07:23:02;;;;;;;9.30;3.55;;;;;;;;;;5073107;28;20036;-82
2021/04/20 07:25:39;;;;;;;11.60;3.55;;;;;;;;;;5060206;28;20032;-82
2021/04/20 07:28:08;;;;;;;9.13;3.60;;;;;;;;;;5070804;28;20028;-82
2021/04/20 07:30:36;;;;;;;8.80;3.60;;;;;;;;;;5070113;28;20051;-83
2021/04/20 07:33:20;;;;;;;8.55;3.75;;;;;;;;;;5066156;28;20132;-83
2021/04/20 07:35:56;;;;;;;8.55;3.92;;;;;;;;;;5073595;28;20040;-82
2021/04/20 07:38:31;;;;;;;10.68;3.40;;;;;;;;;;5076326;28;20113;-83
2021/04/20 07:41:15;;;;;;;13.90;4.03;;;;;;;;;;5067602;28;20056;-82
2021/04/20 07:43:41;;;;;;;8.95;3.70;;;;;;;;;;5069898;28;20394;-83
2021/04/20 07:46:12;;;;;;;9.95;3.85;;;;;;;;;;5068088;28;20032;-83
2021/04/20 07:48:53;;;;;;;7.68;3.42;;;;;;;;;;5068646;28;20024;-82
2021/04/20 07:51:38;;;;;;;9.02;4.28;;;;;;;;;;5072854;28;20381;-82
2021/04/20 07:54:12;;;;;;;10.52;4.20;;;;;;;;;;5073601;28;20039;-82
2021/04/20 07:56:55;;;;;;;;;;;;;;;;;;;;;
2021/04/20 07:59:40;;;;;;;10.13;3.88;;;;;;;;;;5068270;28;20043;-82
2021/04/20 08:06:02;;;;;;;;;;;;;;;;;;;;;
2021/04/20 08:11:05;;;;;;;14.20;4.32;;;;;;;;;;5050355;28;20041;-82
2021/04/20 08:13:37;;;;;;;7.50;3.47;;;;;;;;;;5063826;28;20542;-82
2021/04/20 08:16:09;;;;;;;11.90;4.25;;;;;;;;;;5073768;28;20025;-82
2021/04/20 08:18:42;;;;;;;12.60;3.83;;;;;;;;;;5087016;28;20019;-83
2021/04/20 08:21:08;;;;;;;8.80;4.28;;;;;;;;;;5067947;28;20029;-82
2021/04/20 08:23:36;;;;;;;8.18;3.80;;;;;;;;;;5075551;28;20025;-82
2021/04/20 08:26:07;;;;;;;9.73;3.72;;;;;;;;;;5076191;28;20063;-82
2021/04/20 08:28:40;;;;;;;11.75;3.95;;;;;;;;;;5073029;28;20021;-82
2021/04/20 08:31:21;;;;;;;9.27;3.78;;;;;;;;;;5073063;28;20035;-83
2021/04/20 08:33:57;;;;;;;9.43;4.10;;;;;;;;;;5074320;28;20020;-83
2021/04/20 08:36:32;;;;;;;9.95;3.60;;;;;;;;;;5070218;28;20415;-82
2021/04/20 08:39:10;;;;;;;14.05;4.00;;;;;;;;;;5065227;28;20103;-82
2021/04/20 08:41:47;;;;;;;13.10;4.20;;;;;;;;;;5074080;28;20500;-82
2021/04/20 08:44:32;;;;;;;7.95;3.65;;;;;;;;;;5073973;28;20070;-82
2021/04/20 08:50:09;;;;;;;9.02;3.53;;;;;;;;;;5062062;28;20492;-82
2021/04/20 08:52:40;;;;;;;9.13;3.75;;;;;;;;;;5078583;28;20012;-82
2021/04/20 08:55:24;;;;;;;8.82;3.33;;;;;;;;;;5073258;28;20483;-82
2021/04/20 08:58:08;;;;;;;8.65;3.38;;;;;;;;;;5063360;28;20047;-82
2021/04/20 09:00:33;;;;;;;7.55;3.50;;;;;;;;;;5069506;28;20055;-82
2021/04/20 09:02:58;;;;;;;9.00;3.63;;;;;;;;;;5068102;28;20063;-82
2021/04/20 09:05:31;;;;;;;11.25;2.83;;;;;;;;;;5065610;28;20445;-81
2021/04/20 09:07:57;;;;;;;8.43;3.30;;;;;;;;;;5071113;28;20020;-81
2021/04/20 09:10:23;;;;;;;9.30;3.13;;;;;;;;;;5067562;28;20082;-82
2021/04/20 09:12:50;;;;;;;6.40;2.88;;;;;;;;;;5066690;28;20407;-82
2021/04/20 09:15:17;;;;;;;7.95;3.03;;;;;;;;;;5069252;28;20078;-82
2021/04/20 09:17:44;;;;;;;11.75;3.72;;;;;;;;;;5067632;28;20062;-82
2021/04/20 09:20:13;;;;;;;7.80;3.00;;;;;;;;;;5069403;28;20021;-82
2021/04/20 09:22:38;;;;;;;10.75;4.18;;;;;;;;;;5059605;28;20024;-82
2021/04/20 09:25:04;;;;;;;7.97;3.20;;;;;;;;;;5069168;28;20046;-85
2021/04/20 09:27:45;;;;;;;5.43;2.90;;;;;;;;;;5065598;28;20442;-81
2021/04/20 09:30:15;;;;;;;10.25;3.58;;;;;;;;;;5067448;28;20100;-81
2021/04/20 09:32:55;;;;;;;6.40;3.17;;;;;;;;;;5057772;28;20032;-81
2021/04/20 09:35:21;;;;;;;7.80;3.10;;;;;;;;;;5062403;28;20421;-81
2021/04/20 09:37:48;;;;;;;7.35;3.42;;;;;;;;;;5066971;28;20480;-81
2021/04/20 09:40:15;;;;;;;9.30;3.10;;;;;;;;;;5066402;28;20077;-81
2021/04/20 09:42:41;;;;;;;8.07;3.25;;;;;;;;;;5069687;28;20103;-81
2021/04/20 09:45:22;;;;;;;6.10;3.15;;;;;;;;;;5065859;28;20021;-81
2021/04/20 09:48:02;;;;;;;7.13;3.08;;;;;;;;;;5052561;28;20029;-80
2021/04/20 09:50:35;;;;;;;7.65;3.47;;;;;;;;;;5063437;28;20023;-81
2021/04/20 09:53:05;;;;;;;7.53;3.30;;;;;;;;;;5069026;28;20029;-81
2021/04/20 09:55:41;;;;;;;7.72;3.47;;;;;;;;;;5056557;28;20032;-80
2021/04/20 09:58:08;;;;;;;8.18;3.70;;;;;;;;;;5053539;28;20492;-81
2021/04/20 10:00:33;;;;;;;8.32;3.25;;;;;;;;;;5056979;28;20033;-81
2021/04/20 10:03:15;;;;;;;9.05;3.50;;;;;;;;;;5059672;28;20032;-81
2021/04/20 10:05:40;;;;;;;;;;;;;;;;;;5055608;28;20036;-81
2021/04/20 10:08:24;;;;;;;8.93;3.38;;;;;;;;;;5067984;28;19966;-81
2021/04/20 10:10:51;;;;;;;9.80;3.08;;;;;;;;;;5070962;28;20275;-82
2021/04/20 10:13:32;;;;;;;7.60;2.78;;;;;;;;;;5072241;28;20023;-83
2021/04/20 10:15:57;;;;;;;8.30;3.22;;;;;;;;;;5070904;28;20043;-82
2021/04/20 10:18:32;;;;;;;6.10;3.30;;;;;;;;;;5088249;28;20027;-82
2021/04/20 10:21:04;;;;;;;6.13;3.00;;;;;;;;;;5063297;28;20029;-81
2021/04/20 10:23:45;;;;;;;7.07;3.30;;;;;;;;;;5068008;28;20028;-82
2021/04/20 10:26:14;;;;;;;9.45;3.60;;;;;;;;;;5060269;28;20033;-81
2021/04/20 10:28:48;;;;;;;7.72;2.70;;;;;;;;;;5076429;28;20110;-81
2021/04/20 10:31:22;;;;;;;6.05;3.03;;;;;;;;;;5076126;28;20452;-82
2021/04/20 10:33:49;;;;;;;8.10;3.30;;;;;;;;;;5062641;28;20039;-82
2021/04/20 10:36:15;;;;;;;8.90;3.60;;;;;;;;;;5063551;28;20016;-82
2021/04/20 10:38:41;;;;;;;7.05;2.90;;;;;;;;;;5052544;28;20028;-82
2021/04/20 10:41:23;;;;;;;9.02;3.30;;;;;;;;;;5065894;28;20085;-82
2021/04/20 10:43:49;;;;;;;6.55;2.80;;;;;;;;;;5074779;28;20449;-82
2021/04/20 10:46:19;;;;;;;5.32;2.65;;;;;;;;;;5072024;28;20021;-81
2021/04/20 10:48:45;;;;;;;9.68;2.40;;;;;;;;;;5061602;28;20054;-82
2021/04/20 10:51:11;;;;;;;5.72;2.65;;;;;;;;;;5084628;28;20029;-82
2021/04/20 10:53:38;;;;;;;7.45;2.40;;;;;;;;;;5067940;28;20087;-81
2021/04/20 10:56:12;;;;;;;6.93;2.30;;;;;;;;;;5066951;28;20033;-82
2021/04/20 10:58:41;;;;;;;5.80;2.20;;;;;;;;;;5068014;28;20021;-81
2021/04/20 11:01:06;;;;;;;6.43;2.53;;;;;;;;;;5071090;28;20025;-82
2021/04/20 11:03:34;;;;;;;5.47;2.20;;;;;;;;;;5069713;28;20439;-82
2021/04/20 11:06:02;;;;;;;7.95;2.53;;;;;;;;;;5069765;28;20025;-82
2021/04/20 11:08:38;;;;;;;7.15;2.75;;;;;;;;;;5069068;28;20040;-81
2021/04/20 11:11:04;;;;;;;8.60;2.50;;;;;;;;;;5071667;28;20025;-81
2021/04/20 11:13:35;;;;;;;7.47;2.88;;;;;;;;;;5072565;28;20027;-80
2021/04/20 11:16:02;;;;;;;5.60;2.30;;;;;;;;;;5057778;28;20070;-82
2021/04/20 11:18:30;;;;;;;5.65;2.80;;;;;;;;;;5066721;28;20062;-81
2021/04/20 11:20:59;;;;;;;5.72;2.53;;;;;;;;;;5067665;28;20029;-81
2021/04/20 11:23:28;;;;;;;6.43;2.60;;;;;;;;;;5071333;28;20025;-81
2021/04/20 11:25:53;;;;;;;5.70;2.35;;;;;;;;;;5068700;28;20047;-80
2021/04/20 11:28:37;;;;;;;7.90;2.60;;;;;;;;;;5071074;28;20033;-81
2021/04/20 11:31:07;;;;;;;7.32;2.80;;;;;;;;;;5070196;28;20029;-80
2021/04/20 11:33:33;;;;;;;7.07;2.40;;;;;;;;;;5072736;28;20021;-80
2021/04/20 11:36:00;;;;;;;4.95;2.38;;;;;;;;;;5075574;28;20480;-81
2021/04/20 11:38:25;;;;;;;5.35;2.40;;;;;;;;;;5075723;28;20040;-80
2021/04/20 11:40:53;;;;;;;5.82;2.38;;;;;;;;;;5072433;28;20041;-80
2021/04/20 11:43:18;;;;;;;9.02;2.33;;;;;;;;;;5076653;28;20084;-80
2021/04/20 11:45:44;;;;;;;4.83;2.40;;;;;;;;;;5076871;28;20071;-80
2021/04/20 11:48:13;;;;;;;8.40;2.83;;;;;;;;;;5075456;28;20368;-80
2021/04/20 11:50:41;;;;;;;5.30;2.20;;;;;;;;;;5075792;28;20464;-81
2021/04/20 11:53:08;;;;;;;5.53;2.15;;;;;;;;;;5075797;28;20029;-81
2021/04/20 11:55:45;;;;;;;8.93;2.20;;;;;;;;;;5070985;28;20028;-81
2021/04/20 11:58:12;;;;;;;5.47;1.70;;;;;;;;;;5070757;28;20157;-82
2021/04/20 12:00:40;;;;;;;4.88;1.90;;;;;;;;;;5071796;28;20086;-81
2021/04/20 12:03:07;;;;;;;8.20;2.42;;;;;;;;;;5081984;28;20092;-81
2021/04/20 12:05:33;;;;;;;5.43;2.17;;;;;;;;;;5078663;28;20059;-81
2021/04/20 12:07:59;;;;;;;6.68;2.38;;;;;;;;;;5080522;28;20080;-81
2021/04/20 12:10:24;;;;;;;5.25;2.33;;;;;;;;;;5082306;28;20063;-81
2021/04/20 12:12:51;;;;;;;6.38;2.20;;;;;;;;;;5076870;28;20088;-80
2021/04/20 12:15:17;;;;;;;5.00;2.03;;;;;;;;;;5083856;28;20036;-81
2021/04/20 12:17:44;;;;;;;4.35;1.90;;;;;;;;;;5063066;28;20115;-81
2021/04/20 12:20:11;;;;;;;8.38;2.13;;;;;;;;;;5079049;28;20104;-80
2021/04/20 12:22:37;;;;;;;3.55;1.70;;;;;;;;;;5080526;28;20024;-81
2021/04/20 12:25:03;;;;;;;6.30;2.00;;;;;;;;;;5076652;28;20075;-80
2021/04/20 12:27:30;;;;;;;6.55;1.88;;;;;;;;;;5075831;28;20029;-80
2021/04/20 12:29:56;;;;;;;4.85;1.90;;;;;;;;;;5076288;28;20020;-80
2021/04/20 12:32:22;;;;;;;6.80;2.28;;;;;;;;;;5073644;28;20025;-80
2021/04/20 12:34:55;;;;;;;4.65;2.17;;;;;;;;;;5078934;28;20032;-80
2021/04/20 12:37:22;;;;;;;7.38;2.15;;;;;;;;;;5077199;28;20466;-81
2021/04/20 12:39:48;;;;;;;6.10;2.55;;;;;;;;;;5074414;28;20056;-81
2021/04/20 12:42:15;;;;;;;6.85;2.17;;;;;;;;;;5080641;28;20033;-81
2021/04/20 12:44:42;;;;;;;9.75;2.65;;;;;;;;;;5073060;28;20024;-81
2021/04/20 12:47:10;;;;;;;5.90;2.63;;;;;;;;;;5060616;28;20067;-81
2021/04/20 12:49:36;;;;;;;5.43;2.38;;;;;;;;;;5072189;28;20016;-80
2021/04/20 12:52:06;;;;;;;4.05;2.20;;;;;;;;;;5070206;28;20085;-81
2021/04/20 12:54:36;;;;;;;9.63;2.80;;;;;;;;;;5069349;28;20651;-80
2021/04/20 12:57:02;;;;;;;9.10;1.95;;;;;;;;;;5068326;28;20040;-80
2021/04/20 12:59:28;;;;;;;5.45;2.33;;;;;;;;;;5068046;28;20590;-80
2021/04/20 13:01:57;;;;;;;3.28;1.60;;;;;;;;;;5068202;28;20121;-81
2021/04/20 13:04:29;;;;;;;5.30;2.10;;;;;;;;;;5065871;28;20068;-80
2021/04/20 13:06:55;;;;;;;5.32;2.00;;;;;;;;;;5068837;28;20072;-80
2021/04/20 13:09:36;;;;;;;5.72;2.22;;;;;;;;;;5070661;28;20123;-80
2021/04/20 13:12:05;;;;;;;11.18;2.05;;;;;;;;;;5071712;28;20333;-80
2021/04/20 13:14:30;;;;;;;6.97;2.25;;;;;;;;;;5070840;28;20032;-81
2021/04/20 13:16:56;;;;;;;5.65;2.30;;;;;;;;;;5074282;28;20517;-80
2021/04/20 13:19:29;;;;;;;5.45;1.70;;;;;;;;;;5070803;28;20492;-80
2021/04/20 13:21:56;;;;;;;4.53;1.77;;;;;;;;;;5068245;28;20032;-80
2021/04/20 13:24:22;;;;;;;4.78;1.77;;;;;;;;;;5069560;28;20107;-80
2021/04/20 13:26:52;;;;;;;6.57;2.13;;;;;;;;;;5074060;28;20059;-80
2021/04/20 13:29:19;;;;;;;4.47;1.98;;;;;;;;;;5072086;28;20029;-80
2021/04/20 13:31:47;;;;;;;7.97;2.20;;;;;;;;;;5070407;28;20013;-80
2021/04/20 13:34:33;;;;;;;6.13;2.03;;;;;;;;;;5069972;28;20032;-80
2021/04/20 13:37:01;;;;;;;7.50;1.90;;;;;;;;;;5068402;28;20039;-80
2021/04/20 13:39:36;;;;;;;8.95;2.35;;;;;;;;;;5073799;28;20078;-81
2021/04/20 13:42:04;;;;;;;6.03;2.28;;;;;;;;;;5072963;28;20032;-80
2021/04/20 13:44:31;;;;;;;4.05;1.90;;;;;;;;;;5064951;28;20493;-79
2021/04/20 13:46:58;;;;;;;4.70;2.30;;;;;;;;;;5060530;28;20013;-81
2021/04/20 13:49:24;;;;;;;3.40;1.48;;;;;;;;;;5074593;28;20519;-80
2021/04/20 13:52:01;;;;;;;8.07;2.35;;;;;;;;;;5070647;28;20013;-80
2021/04/20 13:54:30;;;;;;;3.55;1.80;;;;;;;;;;5068586;28;20476;-80
2021/04/20 13:56:56;;;;;;;7.68;2.03;;;;;;;;;;5067380;28;20116;-79
2021/04/20 13:59:24;;;;;;;4.85;2.20;;;;;;;;;;5067313;28;20050;-79
2021/04/20 14:01:51;;;;;;;5.03;2.22;;;;;;;;;;5068100;28;20058;-80
2021/04/20 14:04:27;;;;;;;4.63;2.10;;;;;;;;;;5069590;28;20086;-80
2021/04/20 14:06:55;;;;;;;6.00;2.03;;;;;;;;;;5065191;28;20012;-80
2021/04/20 14:09:26;;;;;;;4.00;1.90;;;;;;;;;;5069824;28;20060;-80
2021/04/20 14:11:56;;;;;;;4.47;1.93;;;;;;;;;;5067096;28;20108;-80
2021/04/20 14:14:33;;;;;;;4.80;2.03;;;;;;;;;;5067935;28;20052;-80
2021/04/20 14:17:00;;;;;;;5.30;2.10;;;;;;;;;;5066871;28;20398;-79
2021/04/20 14:19:25;;;;;;;6.80;2.05;;;;;;;;;;5070437;28;20029;-79
2021/04/20 14:21:57;;;;;;;6.22;2.30;;;;;;;;;;5070497;28;20032;-80
2021/04/20 14:24:23;;;;;;;3.97;1.70;;;;;;;;;;5072807;28;20028;-80
2021/04/20 14:26:50;;;;;;;5.45;2.08;;;;;;;;;;5067206;28;20025;-80
2021/04/20 14:29:16;;;;;;;7.68;2.17;;;;;;;;;;5067177;28;20027;-80
2021/04/20 14:31:44;;;;;;;10.43;2.45;;;;;;;;;;5067149;28;20116;-79
2021/04/20 14:34:12;;;;;;;4.63;1.90;;;;;;;;;;5068522;28;20475;-79
2021/04/20 14:36:39;;;;;;;5.68;2.03;;;;;;;;;;5054351;28;20016;-80
2021/04/20 14:39:29;;;;;;;5.68;1.90;;;;;;;;;;5064177;28;20077;-80
2021/04/20 14:42:01;;;;;;;5.88;2.25;;;;;;;;;;5067205;28;20565;-80
2021/04/20 14:44:27;;;;;;;5.50;2.15;;;;;;;;;;5064885;28;20053;-80
2021/04/20 14:47:05;;;;;;;5.93;2.50;;;;;;;;;;5066569;28;20024;-80
2021/04/20 14:49:31;;;;;;;7.07;2.30;;;;;;;;;;5065691;28;20028;-80